createdAt,value
2019-04-23T00:01:04.717Z,24.10
2019-04-23T00:01:49.266Z,23.10
2019-04-23T00:02:50.824Z,24.10
2019-04-23T00:03:50.020Z,24.30
2019-04-23T00:04:47.924Z,24.30
2019-04-23T00:05:51.361Z,24.70
2019-04-23T00:07:03.529Z,26.10
2019-04-23T00:07:59.178Z,24.50
2019-04-23T00:09:12.438Z,25.10
2019-04-23T00:09:46.697Z,24.40
2019-04-23T00:10:53.407Z,25.40
2019-04-23T00:11:54.258Z,26.40
2019-04-23T00:12:49.609Z,27.40
2019-04-23T00:13:49.903Z,26.60
2019-04-23T00:14:57.781Z,25.50
2019-04-23T00:15:54.155Z,25.40
2019-04-23T00:16:49.311Z,25.70
2019-04-23T00:17:50.219Z,24.40
2019-04-23T00:18:46.510Z,24.90
2019-04-23T00:19:50.245Z,25.10
2019-04-23T00:20:47.962Z,24.30
2019-04-23T00:21:50.328Z,24.50
2019-04-23T00:22:51.831Z,24.90
2019-04-23T00:23:53.392Z,24.70
2019-04-23T00:26:59.646Z,22.80
2019-04-23T00:27:52.769Z,23.70
2019-04-23T00:28:58.892Z,23.60
2019-04-23T00:29:53.401Z,24.30
2019-04-23T00:30:54.968Z,24.00
2019-04-23T00:31:56.054Z,24.50
2019-04-23T00:32:51.653Z,23.90
2019-04-23T00:33:55.611Z,23.60
2019-04-23T00:36:07.044Z,23.00
2019-04-23T00:36:51.425Z,24.00
2019-04-23T00:37:48.403Z,22.50
2019-04-23T00:40:51.278Z,22.90
2019-04-23T00:41:52.896Z,24.80
2019-04-23T00:42:49.641Z,23.90
2019-04-23T00:43:54.625Z,23.20
2019-04-23T00:44:54.416Z,23.30
2019-04-23T00:45:59.396Z,24.10
2019-04-23T00:46:48.576Z,24.30
2019-04-23T00:47:51.354Z,22.70
2019-04-23T00:48:51.865Z,25.80
2019-04-23T00:49:51.121Z,22.80
2019-04-23T00:50:49.207Z,24.90
2019-04-23T00:51:55.233Z,23.30
2019-04-23T00:52:46.199Z,24.60
2019-04-23T00:53:43.939Z,22.50
2019-04-23T00:55:49.065Z,24.00
2019-04-23T00:56:54.439Z,24.00
2019-04-23T00:57:50.522Z,24.80
2019-04-23T00:58:51.158Z,25.00
2019-04-23T00:59:53.932Z,26.10
2019-04-23T01:01:56.742Z,26.30
2019-04-23T01:02:54.724Z,24.90
2019-04-23T01:03:50.443Z,25.90
2019-04-23T01:04:50.521Z,24.70
2019-04-23T01:05:50.350Z,26.30
2019-04-23T01:06:52.348Z,25.60
2019-04-23T01:08:50.957Z,25.00
2019-04-23T01:09:54.177Z,25.50
2019-04-23T01:10:52.556Z,25.00
2019-04-23T01:11:48.144Z,25.30
2019-04-23T01:12:51.200Z,24.60
2019-04-23T01:13:51.082Z,25.20
2019-04-23T01:14:48.159Z,25.00
2019-04-23T01:16:46.207Z,25.20
2019-04-23T01:19:49.528Z,26.00
2019-04-23T01:20:51.581Z,25.90
2019-04-23T01:21:28.435Z,25.80
2019-04-23T01:22:27.467Z,24.80
2019-04-23T01:23:31.978Z,26.20
2019-04-23T01:24:29.714Z,25.50
2019-04-23T01:25:35.116Z,26.00
2019-04-23T01:26:50.382Z,26.30
2019-04-23T01:28:55.940Z,26.30
2019-04-23T01:29:57.884Z,25.20
2019-04-23T01:30:55.324Z,27.60
2019-04-23T01:31:53.749Z,25.80
2019-04-23T01:32:54.564Z,25.80
2019-04-23T01:33:51.777Z,25.80
2019-04-23T01:34:59.507Z,24.40
2019-04-23T01:36:06.160Z,26.30
2019-04-23T01:36:51.583Z,26.70
2019-04-23T01:37:46.415Z,24.60
2019-04-23T01:38:55.948Z,25.90
2019-04-23T01:39:53.096Z,26.30
2019-04-23T01:40:48.457Z,25.70
2019-04-23T01:41:57.757Z,25.30
2019-04-23T01:43:03.018Z,26.50
2019-04-23T01:44:07.454Z,25.80
2019-04-23T01:45:14.972Z,27.30
2019-04-23T01:45:49.526Z,26.00
2019-04-23T01:46:56.160Z,27.10
2019-04-23T01:48:55.237Z,26.00
2019-04-23T01:50:52.858Z,27.40
2019-04-23T01:51:53.175Z,27.00
2019-04-23T01:53:51.510Z,25.40
2019-04-23T01:54:52.882Z,25.60
2019-04-23T01:55:54.449Z,27.40
2019-04-23T01:56:47.173Z,26.00
2019-04-23T01:58:53.507Z,28.10
2019-04-23T01:59:55.152Z,26.10
2019-04-23T02:00:53.239Z,27.60
2019-04-23T02:01:51.573Z,27.20
2019-04-23T02:02:55.932Z,27.30
2019-04-23T02:03:54.406Z,26.40
2019-04-23T02:05:01.273Z,27.50
2019-04-23T02:05:57.712Z,26.90
2019-04-23T02:06:50.519Z,28.60
2019-04-23T02:07:58.120Z,27.80
2019-04-23T02:08:52.407Z,28.10
2019-04-23T02:09:56.940Z,27.10
2019-04-23T02:10:56.436Z,28.60
2019-04-23T02:11:53.612Z,28.40
2019-04-23T02:12:55.645Z,29.10
2019-04-23T02:14:09.649Z,26.60
2019-04-23T02:14:59.361Z,28.00
2019-04-23T02:16:03.244Z,26.20
2019-04-23T02:16:51.541Z,28.50
2019-04-23T02:18:03.995Z,28.10
2019-04-23T02:19:11.340Z,27.80
2019-04-23T02:19:51.553Z,27.00
2019-04-23T02:20:55.926Z,28.90
2019-04-23T02:21:57.651Z,26.80
2019-04-23T02:23:50.792Z,29.80
2019-04-23T02:24:55.845Z,32.30
2019-04-23T02:26:48.604Z,31.10
2019-04-23T02:27:59.885Z,30.10
2019-04-23T02:28:54.642Z,26.50
2019-04-23T02:30:05.799Z,29.20
2019-04-23T02:31:15.422Z,26.30
2019-04-23T02:33:12.422Z,26.30
2019-04-23T02:34:00.941Z,26.30
2019-04-23T02:35:24.081Z,27.00
2019-04-23T02:36:01.270Z,28.60
2019-04-23T02:40:08.728Z,27.90
2019-04-23T02:41:03.816Z,25.80
2019-04-23T02:42:07.287Z,26.80
2019-04-23T02:43:08.865Z,26.60
2019-04-23T02:44:05.063Z,27.40
2019-04-23T02:44:56.232Z,26.10
2019-04-23T02:46:02.347Z,28.40
2019-04-23T02:47:17.594Z,27.00
2019-04-23T02:48:10.865Z,27.50
2019-04-23T02:50:18.011Z,26.80
2019-04-23T02:51:13.423Z,26.90
2019-04-23T02:52:01.832Z,28.20
2019-04-23T02:53:07.346Z,27.90
2019-04-23T02:54:04.568Z,27.40
2019-04-23T02:55:03.779Z,27.80
2019-04-23T02:56:06.886Z,27.40
2019-04-23T02:58:01.242Z,28.90
2019-04-23T02:59:08.095Z,28.00
2019-04-23T03:00:18.965Z,27.90
2019-04-23T03:02:12.061Z,26.90
2019-04-23T03:03:13.598Z,28.60
2019-04-23T03:03:59.666Z,28.20
2019-04-23T03:04:57.005Z,29.40
2019-04-23T03:07:02.910Z,29.10
2019-04-23T03:07:59.846Z,27.60
2019-04-23T03:08:56.069Z,28.30
2019-04-23T03:09:58.748Z,28.20
2019-04-23T03:11:45.691Z,29.10
2019-04-23T03:12:00.705Z,29.60
2019-04-23T03:13:27.946Z,29.50
2019-04-23T03:14:00.409Z,31.40
2019-04-23T03:15:10.998Z,30.60
2019-04-23T03:16:06.116Z,32.40
2019-04-23T03:16:56.418Z,33.20
2019-04-23T03:18:12.184Z,33.00
2019-04-23T03:20:08.023Z,34.20
2019-04-23T03:21:21.710Z,34.60
2019-04-23T03:21:59.744Z,34.90
2019-04-23T03:23:03.144Z,34.30
2019-04-23T03:24:02.243Z,34.70
2019-04-23T03:25:59.368Z,35.10
2019-04-23T03:27:07.418Z,37.80
2019-04-23T03:27:56.131Z,37.80
2019-04-23T03:30:52.986Z,36.40
2019-04-23T03:32:37.855Z,39.60
2019-04-23T03:38:12.064Z,37.90
2019-04-23T03:40:11.650Z,37.70
2019-04-23T03:41:08.890Z,37.80
2019-04-23T03:42:02.537Z,36.90
2019-04-23T03:43:46.923Z,39.30
2019-04-23T03:46:12.241Z,35.00
2019-04-23T03:48:05.966Z,37.50
2019-04-23T03:48:54.248Z,36.00
2019-04-23T03:50:15.802Z,33.40
2019-04-23T03:50:53.286Z,33.90
2019-04-23T03:52:01.199Z,34.70
2019-04-23T03:52:58.119Z,35.20
2019-04-23T03:54:20.922Z,35.60
2019-04-23T03:55:01.238Z,31.40
2019-04-23T03:56:07.948Z,35.60
2019-04-23T03:57:54.154Z,34.80
2019-04-23T03:58:58.197Z,37.30
2019-04-23T04:00:58.887Z,37.60
2019-04-23T04:03:27.819Z,38.40
2019-04-23T04:04:23.064Z,37.50
2019-04-23T04:04:55.860Z,37.70
2019-04-23T04:08:06.788Z,42.10
2019-04-23T04:09:08.073Z,40.70
2019-04-23T04:09:55.558Z,39.20
2019-04-23T04:11:04.354Z,40.00
2019-04-23T04:11:54.907Z,40.80
2019-04-23T04:12:59.539Z,43.20
2019-04-23T04:14:24.564Z,44.90
2019-04-23T04:18:11.030Z,45.70
2019-04-23T04:20:02.807Z,46.60
2019-04-23T04:21:02.859Z,46.40
2019-04-23T04:22:00.249Z,49.80
2019-04-23T04:23:07.833Z,50.20
2019-04-23T04:25:02.067Z,49.20
2019-04-23T04:25:58.457Z,45.50
2019-04-23T04:29:19.087Z,41.80
2019-04-23T04:30:19.155Z,43.40
2019-04-23T04:31:09.002Z,46.10
2019-04-23T04:33:21.315Z,46.10
2019-04-23T04:38:15.466Z,47.90
2019-04-23T04:40:10.977Z,48.30
2019-04-23T04:42:06.211Z,52.30
2019-04-23T04:43:20.507Z,56.70
2019-04-23T04:44:17.175Z,51.90
2019-04-23T04:47:09.762Z,60.10
2019-04-23T04:48:00.736Z,54.10
2019-04-23T04:49:01.476Z,57.80
2019-04-23T04:51:08.046Z,61.10
2019-04-23T04:53:33.412Z,57.00
2019-04-23T04:54:09.284Z,61.50
2019-04-23T04:55:05.212Z,61.00
2019-04-23T04:57:13.125Z,56.30
2019-04-23T04:59:09.344Z,55.80
2019-04-23T05:00:11.055Z,56.60
2019-04-23T05:01:08.166Z,56.20
2019-04-23T05:04:05.561Z,59.20
2019-04-23T05:06:24.536Z,60.40
2019-04-23T05:08:07.401Z,63.50
2019-04-23T05:10:25.828Z,60.30
2019-04-23T05:11:13.581Z,54.90
2019-04-23T05:12:14.446Z,57.60
2019-04-23T05:14:06.668Z,62.50
2019-04-23T05:17:11.163Z,65.60
2019-04-23T05:18:09.931Z,73.80
2019-04-23T05:20:04.600Z,77.50
2019-04-23T05:22:06.639Z,78.30
2019-04-23T05:23:05.980Z,67.60
2019-04-23T05:24:14.823Z,73.50
2019-04-23T05:24:51.031Z,73.90
2019-04-23T05:26:01.102Z,72.60
2019-04-23T05:27:01.207Z,75.40
2019-04-23T05:28:28.311Z,74.80
2019-04-23T05:29:06.232Z,79.50
2019-04-23T05:30:01.735Z,72.40
2019-04-23T05:31:02.233Z,75.60
2019-04-23T05:31:58.179Z,70.70
2019-04-23T05:33:05.939Z,77.00
2019-04-23T05:34:11.164Z,73.20
2019-04-23T05:34:55.473Z,76.90
2019-04-23T05:36:13.068Z,69.20
2019-04-23T05:37:00.023Z,67.40
2019-04-23T05:38:08.889Z,65.10
2019-04-23T05:39:56.726Z,66.50
2019-04-23T05:41:03.714Z,67.00
2019-04-23T05:42:00.623Z,69.80
2019-04-23T05:42:59.651Z,65.30
2019-04-23T05:44:02.246Z,61.30
2019-04-23T05:45:06.096Z,68.70
2019-04-23T05:45:59.305Z,66.70
2019-04-23T05:46:59.653Z,65.20
2019-04-23T05:48:06.742Z,60.90
2019-04-23T05:49:00.162Z,54.10
2019-04-23T05:50:00.766Z,67.00
2019-04-23T05:51:04.587Z,64.00
2019-04-23T05:53:01.309Z,63.60
2019-04-23T05:53:58.446Z,67.50
2019-04-23T05:56:01.799Z,65.00
2019-04-23T05:56:55.309Z,68.30
2019-04-23T05:58:00.907Z,66.20
2019-04-23T05:58:58.103Z,67.60
2019-04-23T05:59:55.360Z,65.40
2019-04-23T06:01:05.870Z,65.40
2019-04-23T06:01:56.981Z,68.30
2019-04-23T06:03:04.866Z,65.30
2019-04-23T06:04:04.028Z,63.90
2019-04-23T06:04:58.019Z,62.90
2019-04-23T06:06:04.732Z,62.10
2019-04-23T06:07:33.293Z,65.30
2019-04-23T06:09:03.562Z,63.50
2019-04-23T06:09:59.481Z,57.70
2019-04-23T06:11:02.545Z,59.10
2019-04-23T06:13:01.385Z,55.70
2019-04-23T06:14:57.648Z,58.30
2019-04-23T06:15:58.065Z,66.80
2019-04-23T06:17:00.495Z,64.10
2019-04-23T06:18:06.652Z,56.10
2019-04-23T06:19:01.171Z,56.60
2019-04-23T06:19:51.400Z,67.90
2019-04-23T06:22:06.038Z,64.10
2019-04-23T06:23:02.023Z,62.80
2019-04-23T06:23:58.280Z,63.10
2019-04-23T06:25:08.542Z,61.70
2019-04-23T06:27:05.098Z,62.00
2019-04-23T06:28:05.981Z,56.90
2019-04-23T06:29:10.312Z,158.50
2019-04-23T06:29:57.053Z,150.80
2019-04-23T06:31:02.401Z,160.50
2019-04-23T06:31:55.242Z,151.30
2019-04-23T06:33:04.347Z,151.00
2019-04-23T06:34:03.883Z,152.20
2019-04-23T06:35:00.938Z,152.70
2019-04-23T06:35:57.294Z,152.70
2019-04-23T06:36:57.483Z,152.80
2019-04-23T06:39:17.715Z,161.00
2019-04-23T06:40:55.486Z,157.70
2019-04-23T06:41:59.215Z,155.30
2019-04-23T06:43:00.547Z,123.50
2019-04-23T06:44:09.308Z,168.60
2019-04-23T06:44:58.224Z,160.10
2019-04-23T06:45:49.276Z,158.60
2019-04-23T06:48:01.871Z,156.80
2019-04-23T06:48:54.931Z,152.70
2019-04-23T06:49:55.912Z,157.00
2019-04-23T06:52:57.399Z,156.90
2019-04-23T06:53:57.399Z,162.90
2019-04-23T06:57:08.778Z,158.90
2019-04-23T06:58:03.186Z,161.10
2019-04-23T06:58:58.937Z,153.10
2019-04-23T06:59:55.581Z,155.20
2019-04-23T07:01:03.415Z,151.10
2019-04-23T07:03:03.124Z,171.30
2019-04-23T07:04:02.954Z,158.10
2019-04-23T07:06:11.761Z,152.60
2019-04-23T07:07:59.509Z,162.90
2019-04-23T07:10:13.003Z,159.70
2019-04-23T07:10:57.885Z,157.00
2019-04-23T07:11:54.017Z,156.10
2019-04-23T07:12:57.763Z,156.90
2019-04-23T07:13:57.599Z,161.30
2019-04-23T07:14:59.553Z,160.60
2019-04-23T07:15:53.717Z,164.60
2019-04-23T07:16:55.968Z,160.30
2019-04-23T07:17:55.541Z,159.70
2019-04-23T07:19:16.516Z,161.60
2019-04-23T07:19:58.476Z,161.10
2019-04-23T07:21:00.980Z,159.90
2019-04-23T07:22:03.332Z,162.30
2019-04-23T07:22:59.152Z,166.90
2019-04-23T07:24:08.675Z,158.60
2019-04-23T07:25:00.463Z,161.70
2019-04-23T07:26:08.163Z,165.30
2019-04-23T07:26:45.475Z,156.40
2019-04-23T07:27:59.095Z,160.00
2019-04-23T07:30:06.595Z,159.10
2019-04-23T07:30:59.997Z,168.20
2019-04-23T07:32:56.588Z,171.90
2019-04-23T07:35:00.925Z,176.60
2019-04-23T07:36:00.011Z,178.40
2019-04-23T07:36:53.736Z,179.50
2019-04-23T07:38:08.920Z,176.00
2019-04-23T07:39:01.199Z,181.70
2019-04-23T07:40:22.961Z,183.00
2019-04-23T07:41:03.819Z,186.10
2019-04-23T07:42:03.377Z,177.40
2019-04-23T07:43:00.111Z,172.00
2019-04-23T07:44:08.421Z,175.80
2019-04-23T07:45:13.698Z,179.50
2019-04-23T07:46:08.563Z,174.10
2019-04-23T07:47:11.553Z,174.90
2019-04-23T07:48:06.168Z,175.80
2019-04-23T07:48:55.762Z,171.40
2019-04-23T07:50:12.879Z,168.60
2019-04-23T07:50:55.143Z,162.10
2019-04-23T07:52:03.704Z,174.20
2019-04-23T07:53:07.129Z,169.90
2019-04-23T07:54:06.007Z,167.00
2019-04-23T07:55:02.177Z,173.70
2019-04-23T07:57:01.823Z,181.70
2019-04-23T07:58:56.792Z,169.90
2019-04-23T08:00:00.699Z,175.50
2019-04-23T08:01:09.663Z,182.70
2019-04-23T08:01:59.731Z,181.40
2019-04-23T08:03:08.436Z,183.60
2019-04-23T08:03:55.842Z,189.80
2019-04-23T08:05:15.660Z,184.60
2019-04-23T08:05:55.615Z,193.80
2019-04-23T08:07:01.188Z,201.30
2019-04-23T08:07:55.888Z,198.80
2019-04-23T08:08:56.872Z,192.70
2019-04-23T08:11:17.957Z,182.30
2019-04-23T08:11:56.657Z,179.80
2019-04-23T08:12:59.579Z,179.90
2019-04-23T08:13:59.097Z,181.20
2019-04-23T08:15:01.291Z,192.40
2019-04-23T08:15:58.549Z,178.30
2019-04-23T08:17:04.032Z,178.20
2019-04-23T08:18:00.210Z,185.90
2019-04-23T08:19:05.674Z,180.80
2019-04-23T08:19:59.648Z,185.90
2019-04-23T08:20:55.759Z,183.10
2019-04-23T08:22:09.273Z,182.80
2019-04-23T08:22:54.985Z,187.30
2019-04-23T08:23:55.469Z,186.10
2019-04-23T08:25:14.315Z,190.40
2019-04-23T08:26:03.220Z,188.70
2019-04-23T08:27:55.507Z,183.00
2019-04-23T08:29:49.420Z,183.80
2019-04-23T08:30:59.219Z,177.90
2019-04-23T08:32:05.391Z,185.20
2019-04-23T08:32:57.607Z,178.50
2019-04-23T08:34:15.173Z,183.80
2019-04-23T08:34:58.796Z,187.90
2019-04-23T08:35:57.646Z,186.80
2019-04-23T08:38:57.028Z,192.10
2019-04-23T08:40:15.174Z,195.20
2019-04-23T08:41:03.954Z,188.80
2019-04-23T08:43:00.679Z,194.50
2019-04-23T08:43:57.228Z,191.90
2019-04-23T08:45:13.298Z,196.70
2019-04-23T08:45:59.133Z,183.30
2019-04-23T08:47:05.221Z,185.20
2019-04-23T08:48:04.163Z,187.50
2019-04-23T08:49:04.256Z,184.70
2019-04-23T08:49:50.571Z,186.20
2019-04-23T08:51:07.472Z,186.90
2019-04-23T08:52:03.193Z,190.80
2019-04-23T08:53:03.840Z,192.50
2019-04-23T08:53:55.519Z,186.30
2019-04-23T08:56:12.397Z,181.00
2019-04-23T08:57:02.628Z,179.20
2019-04-23T08:57:52.903Z,193.00
2019-04-23T08:59:02.417Z,189.40
2019-04-23T08:59:55.689Z,181.30
2019-04-23T09:00:58.662Z,182.20
2019-04-23T09:03:00.220Z,179.10
2019-04-23T09:03:56.379Z,182.10
2019-04-23T09:05:00.106Z,180.50
2019-04-23T09:06:12.263Z,184.30
2019-04-23T09:07:04.379Z,186.20
2019-04-23T09:07:59.619Z,181.30
2019-04-23T09:08:56.813Z,181.50
2019-04-23T09:09:57.634Z,180.50
2019-04-23T09:11:54.312Z,183.80
2019-04-23T09:13:10.099Z,178.90
2019-04-23T09:15:01.854Z,193.80
2019-04-23T09:15:58.249Z,187.60
2019-04-23T09:17:03.188Z,219.60
2019-04-23T09:18:02.775Z,212.70
2019-04-23T09:19:04.044Z,221.10
2019-04-23T09:20:54.762Z,255.20
2019-04-23T09:22:04.116Z,228.80
2019-04-23T09:22:53.101Z,226.90
2019-04-23T09:25:06.282Z,222.50
2019-04-23T09:25:54.401Z,226.30
2019-04-23T09:27:00.474Z,226.40
2019-04-23T09:28:23.829Z,234.80
2019-04-23T09:29:14.240Z,233.50
2019-04-23T09:30:00.079Z,238.20
2019-04-23T09:31:02.826Z,236.60
2019-04-23T09:32:14.806Z,230.50
2019-04-23T09:33:00.381Z,236.60
2019-04-23T09:33:58.369Z,238.60
2019-04-23T09:35:52.448Z,240.20
2019-04-23T09:36:59.667Z,245.70
2019-04-23T09:38:04.169Z,263.80
2019-04-23T09:39:00.255Z,263.50
2019-04-23T09:39:59.505Z,268.80
2019-04-23T09:41:15.860Z,266.90
2019-04-23T09:41:51.763Z,259.80
2019-04-23T09:43:00.525Z,269.70
2019-04-23T09:44:02.781Z,271.70
2019-04-23T09:45:13.022Z,267.50
2019-04-23T09:45:59.770Z,277.10
2019-04-23T09:47:00.706Z,279.10
2019-04-23T09:49:09.837Z,279.50
2019-04-23T09:49:57.341Z,284.30
2019-04-23T09:50:59.102Z,281.40
2019-04-23T09:52:01.079Z,289.20
2019-04-23T09:53:05.974Z,296.00
2019-04-23T09:54:00.707Z,301.90
2019-04-23T09:55:15.499Z,301.90
2019-04-23T09:55:45.565Z,293.90
2019-04-23T09:56:52.070Z,298.20
2019-04-23T09:59:02.451Z,300.40
2019-04-23T10:00:01.687Z,300.10
2019-04-23T10:00:54.493Z,295.00
2019-04-23T10:01:52.862Z,287.40
2019-04-23T10:02:45.274Z,288.40
2019-04-23T10:03:45.113Z,291.50
2019-04-23T10:04:44.933Z,285.60
2019-04-23T10:05:39.615Z,284.80
2019-04-23T10:06:34.529Z,284.60
2019-04-23T10:07:41.885Z,284.80
2019-04-23T10:08:35.593Z,283.90
2019-04-23T10:09:30.047Z,291.80
2019-04-23T10:10:28.249Z,282.30
2019-04-23T10:11:28.423Z,283.90
2019-04-23T10:12:28.192Z,288.50
2019-04-23T10:13:27.904Z,285.90
2019-04-23T10:14:28.368Z,277.20
2019-04-23T10:15:34.332Z,281.40
2019-04-23T10:16:32.423Z,288.20
2019-04-23T10:17:28.908Z,285.30
2019-04-23T10:18:29.094Z,289.70
2019-04-23T10:19:28.724Z,288.50
2019-04-23T10:20:28.964Z,294.20
2019-04-23T10:21:29.177Z,289.20
2019-04-23T10:22:29.482Z,291.60
2019-04-23T10:23:29.382Z,289.30
2019-04-23T10:24:27.802Z,305.70
2019-04-23T10:25:27.973Z,293.60
2019-04-23T10:26:28.297Z,289.10
2019-04-23T10:27:29.336Z,302.90
2019-04-23T10:28:27.742Z,301.80
2019-04-23T10:29:27.841Z,297.50
2019-04-23T10:30:28.865Z,295.50
2019-04-23T10:31:27.723Z,291.70
2019-04-23T10:32:27.725Z,292.60
2019-04-23T10:33:29.614Z,294.50
2019-04-23T10:34:29.246Z,297.80
2019-04-23T10:35:39.065Z,290.20
2019-04-23T10:36:30.515Z,295.60
2019-04-23T10:37:39.393Z,297.60
2019-04-23T10:38:30.197Z,298.70
2019-04-23T10:39:32.413Z,295.10
2019-04-23T10:40:33.751Z,285.60
2019-04-23T10:41:29.179Z,288.60
2019-04-23T10:42:30.281Z,293.50
2019-04-23T10:43:30.350Z,290.10
2019-04-23T10:44:29.126Z,292.00
2019-04-23T10:45:42.583Z,291.00
2019-04-23T10:46:48.599Z,293.30
2019-04-23T10:48:05.430Z,294.10
2019-04-23T10:49:04.527Z,294.60
2019-04-23T10:49:58.104Z,298.70
2019-04-23T10:51:00.189Z,289.30
2019-04-23T10:51:59.743Z,288.30
2019-04-23T10:53:04.513Z,295.30
2019-04-23T10:53:56.466Z,294.10
2019-04-23T10:54:59.064Z,286.90
2019-04-23T10:56:02.799Z,295.60
2019-04-23T10:56:59.811Z,290.90
2019-04-23T10:57:56.801Z,302.50
2019-04-23T10:58:54.505Z,298.90
2019-04-23T10:59:53.452Z,294.30
2019-04-23T11:01:00.216Z,306.10
2019-04-23T11:02:22.240Z,300.10
2019-04-23T11:02:58.900Z,303.30
2019-04-23T11:04:57.658Z,289.30
2019-04-23T11:05:58.876Z,304.90
2019-04-23T11:07:13.488Z,308.00
2019-04-23T11:07:47.503Z,309.80
2019-04-23T11:08:57.827Z,312.20
2019-04-23T11:09:58.696Z,313.20
2019-04-23T11:10:58.743Z,311.30
2019-04-23T11:12:07.730Z,310.60
2019-04-23T11:15:08.647Z,321.10
2019-04-23T11:20:58.242Z,322.90
2019-04-23T11:22:05.859Z,316.50
2019-04-23T11:22:51.792Z,330.80
2019-04-23T11:24:02.519Z,318.60
2019-04-23T11:25:23.623Z,325.50
2019-04-23T11:25:48.712Z,328.90
2019-04-23T11:26:57.950Z,330.90
2019-04-23T11:27:58.547Z,345.30
2019-04-23T11:28:55.578Z,342.40
2019-04-23T11:30:00.269Z,344.90
2019-04-23T11:31:07.984Z,336.30
2019-04-23T11:32:05.874Z,328.60
2019-04-23T11:33:00.738Z,333.00
2019-04-23T11:34:00.923Z,334.00
2019-04-23T11:35:24.443Z,332.00
2019-04-23T11:36:18.993Z,337.10
2019-04-23T11:38:58.425Z,336.70
2019-04-23T11:40:04.158Z,330.80
2019-04-23T11:40:49.521Z,339.50
2019-04-23T11:42:27.398Z,330.70
2019-04-23T11:43:03.905Z,347.10
2019-04-23T11:43:53.419Z,337.10
2019-04-23T11:44:59.252Z,328.90
2019-04-23T11:51:32.348Z,323.40
2019-04-23T11:52:54.438Z,327.70
2019-04-23T11:54:07.065Z,326.00
2019-04-23T11:55:00.640Z,320.10
2019-04-23T11:57:14.206Z,323.00
2019-04-23T11:58:07.738Z,318.40
2019-04-23T11:58:52.683Z,326.80
2019-04-23T12:01:03.198Z,321.90
2019-04-23T12:02:05.326Z,316.50
2019-04-23T12:04:07.288Z,323.20
2019-04-23T12:04:59.182Z,324.80
2019-04-23T12:06:03.684Z,307.10
2019-04-23T12:07:00.714Z,307.70
2019-04-23T12:07:57.672Z,299.20
2019-04-23T12:08:56.331Z,307.90
2019-04-23T12:11:15.299Z,302.00
2019-04-23T12:12:57.680Z,324.90
2019-04-23T12:14:04.250Z,313.80
2019-04-23T12:14:54.310Z,316.40
2019-04-23T12:15:53.004Z,326.30
2019-04-23T12:17:08.225Z,326.80
2019-04-23T12:19:14.242Z,312.80
2019-04-23T12:20:52.758Z,300.20
2019-04-23T12:22:02.735Z,302.10
2019-04-23T12:23:04.183Z,320.80
2019-04-23T12:25:07.715Z,312.70
2019-04-23T12:26:03.007Z,318.70
2019-04-23T12:27:02.298Z,302.60
2019-04-23T12:27:42.298Z,308.40
2019-04-23T12:29:52.733Z,298.60
2019-04-23T12:30:57.324Z,292.50
2019-04-23T12:32:01.836Z,314.90
2019-04-23T12:33:11.696Z,288.50
2019-04-23T12:33:57.539Z,281.70
2019-04-23T12:35:43.684Z,276.40
2019-04-23T12:36:50.943Z,271.60
2019-04-23T12:37:55.909Z,276.00
2019-04-23T12:38:56.810Z,279.60
2019-04-23T12:40:00.765Z,281.50
2019-04-23T12:42:10.698Z,273.00
2019-04-23T12:43:04.887Z,283.30
2019-04-23T12:43:54.836Z,276.80
2019-04-23T12:45:47.426Z,283.10
2019-04-23T12:47:04.827Z,286.80
2019-04-23T12:49:15.498Z,283.60
2019-04-23T12:50:21.390Z,288.50
2019-04-23T12:51:10.298Z,286.80
2019-04-23T12:51:56.200Z,267.30
2019-04-23T12:53:05.700Z,270.90
2019-04-23T12:53:52.465Z,282.10
2019-04-23T12:55:50.434Z,271.80
2019-04-23T12:58:45.261Z,276.00
2019-04-23T12:59:56.930Z,281.40
2019-04-23T13:00:48.220Z,279.40
2019-04-23T13:01:57.402Z,272.10
2019-04-23T13:03:46.011Z,284.70
2019-04-23T13:04:51.829Z,279.60
2019-04-23T13:05:42.267Z,276.50
2019-04-23T13:08:02.103Z,275.80
2019-04-23T13:08:54.441Z,271.20
2019-04-23T13:10:17.500Z,278.90
2019-04-23T13:10:51.278Z,273.90
2019-04-23T13:12:01.546Z,280.80
2019-04-23T13:13:03.987Z,282.00
2019-04-23T13:13:58.853Z,272.00
2019-04-23T13:14:59.534Z,280.80
2019-04-23T13:15:53.614Z,285.00
2019-04-23T13:17:01.949Z,275.90
2019-04-23T13:17:54.246Z,291.00
2019-04-23T13:19:03.601Z,285.40
2019-04-23T13:20:51.674Z,283.80
2019-04-23T13:22:21.497Z,291.10
2019-04-23T13:23:49.463Z,304.90
2019-04-23T13:24:53.902Z,298.10
2019-04-23T13:25:56.171Z,299.10
2019-04-23T13:26:56.539Z,302.10
2019-04-23T13:28:02.847Z,292.70
2019-04-23T13:28:50.939Z,288.80
2019-04-23T13:30:00.324Z,295.30
2019-04-23T13:31:48.201Z,288.90
2019-04-23T13:33:01.116Z,286.30
2019-04-23T13:33:58.645Z,284.70
2019-04-23T13:35:29.278Z,285.80
2019-04-23T13:36:03.338Z,278.00
2019-04-23T13:36:51.355Z,292.40
2019-04-23T13:37:59.455Z,282.60
2019-04-23T13:39:14.641Z,285.60
2019-04-23T13:39:52.325Z,289.80
2019-04-23T13:41:01.138Z,290.80
2019-04-23T13:41:54.066Z,288.30
2019-04-23T13:43:12.231Z,283.50
2019-04-23T13:43:47.780Z,287.20
2019-04-23T13:44:57.431Z,287.90
2019-04-23T13:46:03.651Z,290.40
2019-04-23T13:47:00.007Z,303.10
2019-04-23T13:48:02.878Z,281.50
2019-04-23T13:48:47.046Z,293.20
2019-04-23T13:49:58.393Z,286.70
2019-04-23T13:50:59.466Z,279.50
2019-04-23T13:51:58.704Z,289.50
2019-04-23T13:53:51.358Z,280.30
2019-04-23T13:55:11.038Z,283.20
2019-04-23T13:55:56.677Z,276.90
2019-04-23T13:58:07.569Z,277.90
2019-04-23T13:58:55.033Z,287.90
2019-04-23T13:59:55.995Z,284.70
2019-04-23T14:01:46.573Z,275.70
2019-04-23T14:04:11.742Z,286.70
2019-04-23T14:04:59.750Z,293.70
2019-04-23T14:06:04.856Z,288.70
2019-04-23T14:06:55.582Z,282.90
2019-04-23T14:08:59.669Z,293.30
2019-04-23T14:10:55.362Z,287.60
2019-04-23T14:11:51.523Z,284.90
2019-04-23T14:13:15.179Z,287.80
2019-04-23T14:15:12.598Z,268.00
2019-04-23T14:17:00.097Z,276.20
2019-04-23T14:18:13.271Z,287.50
2019-04-23T14:18:58.410Z,272.40
2019-04-23T14:19:53.220Z,275.60
2019-04-23T14:20:59.007Z,264.00
2019-04-23T14:21:51.726Z,272.20
2019-04-23T14:25:01.654Z,271.40
2019-04-23T14:26:10.468Z,268.10
2019-04-23T14:27:18.069Z,263.00
2019-04-23T14:28:05.172Z,272.40
2019-04-23T14:28:52.623Z,274.80
2019-04-23T14:30:05.172Z,270.20
2019-04-23T14:32:05.023Z,267.70
2019-04-23T14:32:53.747Z,270.80
2019-04-23T14:35:06.117Z,257.60
2019-04-23T14:35:50.946Z,264.70
2019-04-23T14:36:57.801Z,263.50
2019-04-23T14:38:09.830Z,265.70
2019-04-23T14:39:52.663Z,268.80
2019-04-23T14:41:04.621Z,266.90
2019-04-23T14:41:56.465Z,272.20
2019-04-23T14:45:06.292Z,261.70
2019-04-23T14:47:04.546Z,256.70
2019-04-23T14:48:02.582Z,271.30
2019-04-23T14:48:57.689Z,263.50
2019-04-23T14:50:17.070Z,256.30
2019-04-23T14:51:00.348Z,252.90
2019-04-23T14:53:10.088Z,247.30
2019-04-23T14:54:12.937Z,262.80
2019-04-23T14:55:33.709Z,257.10
2019-04-23T14:56:13.264Z,258.40
2019-04-23T14:56:58.831Z,267.40
2019-04-23T14:58:06.425Z,262.60
2019-04-23T14:59:53.825Z,255.70
2019-04-23T15:01:13.662Z,269.00
2019-04-23T15:01:54.911Z,255.40
2019-04-23T15:03:00.288Z,257.90
2019-04-23T15:03:50.569Z,256.40
2019-04-23T15:04:54.388Z,262.40
2019-04-23T15:06:10.522Z,250.10
2019-04-23T15:07:04.121Z,260.10
2019-04-23T15:07:57.678Z,268.00
2019-04-23T15:09:19.695Z,250.10
2019-04-23T15:10:01.439Z,265.70
2019-04-23T15:11:07.619Z,260.60
2019-04-23T15:12:02.238Z,255.20
2019-04-23T15:13:01.819Z,253.40
2019-04-23T15:13:58.488Z,253.80
2019-04-23T15:15:01.612Z,256.30
2019-04-23T15:16:03.047Z,251.10
2019-04-23T15:17:07.671Z,253.50
2019-04-23T15:17:55.631Z,251.30
2019-04-23T15:19:59.978Z,249.90
2019-04-23T15:21:12.902Z,247.90
2019-04-23T15:22:05.238Z,248.70
2019-04-23T15:24:00.769Z,246.20
2019-04-23T15:25:06.906Z,248.50
2019-04-23T15:26:40.344Z,259.80
2019-04-23T15:28:34.132Z,248.20
2019-04-23T15:29:47.614Z,254.40
2019-04-23T15:30:59.148Z,245.40